Time;durP1;ratioP1;P1;durP2;ratioP2;P2;SDS_P1;SDS_P2;PMS_P1;PMS_P2;Temp;Humidity;BMP_temperature;BMP_pressure;BME280_temperature;BME280_humidity;BME280_pressure;Samples;Min_cycle;Max_cycle;Signal;HPM_P1;HPM_P2
2024/01/10 00:01:28;;;;;;;37.40;11.80;;;;;;;-5.11;100.00;103099.72;7349371;19;20570;-41
2024/01/10 00:03:57;;;;;;;39.88;13.60;;;;;;;-5.03;100.00;103091.66;7328991;19;20670;-40
2024/01/10 00:06:27;;;;;;;26.25;10.80;;;;;;;-5.06;100.00;103088.72;7349972;19;20702;-41
2024/01/10 00:08:59;;;;;;;33.53;12.25;;;;;;;-5.13;100.00;103080.94;7327625;19;20201;-42
2024/01/10 00:11:29;;;;;;;33.60;12.75;;;;;;;-5.30;100.00;103081.06;7349987;19;20194;-42
2024/01/10 00:14:03;;;;;;;35.38;11.95;;;;;;;-5.24;100.00;103073.50;7329620;19;20190;-44
2024/01/10 00:16:33;;;;;;;30.15;10.98;;;;;;;-5.17;100.00;103061.97;7350108;19;20269;-46
2024/01/10 00:19:02;;;;;;;55.33;17.60;;;;;;;-5.01;100.00;103067.59;7327880;19;20683;-42
2024/01/10 00:21:32;;;;;;;91.15;25.27;;;;;;;-4.71;100.00;103064.16;7350475;19;20212;-50
2024/01/10 00:24:05;;;;;;;49.70;17.95;;;;;;;-4.51;100.00;103061.00;7328439;19;20201;-41
2024/01/10 00:26:35;;;;;;;43.58;14.45;;;;;;;-4.69;100.00;103065.28;7348982;19;20662;-41
2024/01/10 00:29:04;;;;;;;63.15;17.80;;;;;;;-4.64;100.00;103046.69;7327393;19;20282;-42
2024/01/10 00:31:34;;;;;;;38.50;12.90;;;;;;;-4.82;100.00;103049.13;7348934;19;20678;-39
2024/01/10 00:34:04;;;;;;;49.38;16.85;;;;;;;-4.70;100.00;103050.84;7328910;19;20228;-40
2024/01/10 00:36:34;;;;;;;34.35;12.18;;;;;;;-4.80;100.00;103041.09;7347993;19;20279;-41
2024/01/10 00:39:06;;;;;;;33.00;11.90;;;;;;;-4.66;100.00;103042.13;7327129;19;20262;-43
2024/01/10 00:41:36;;;;;;;56.65;13.25;;;;;;;-4.73;100.00;103029.38;7347116;19;20250;-42
2024/01/10 00:44:05;;;;;;;23.50;9.63;;;;;;;-5.06;100.00;103030.78;7327004;19;20254;-45
2024/01/10 00:46:35;;;;;;;28.63;10.60;;;;;;;-5.20;100.00;103027.91;7348877;19;20198;-42
2024/01/10 00:49:04;;;;;;;22.58;9.77;;;;;;;-5.33;100.00;103026.16;7327567;19;20199;-39
2024/01/10 00:51:34;;;;;;;28.02;10.05;;;;;;;-5.30;100.00;103016.56;7348754;19;20536;-42
2024/01/10 00:54:07;;;;;;;29.77;10.10;;;;;;;-5.25;100.00;103033.88;7328056;19;20702;-39
2024/01/10 00:56:36;;;;;;;21.23;9.30;;;;;;;-5.37;100.00;103034.00;7348407;19;20196;-47
2024/01/10 00:59:06;;;;;;;26.73;9.98;;;;;;;-5.36;100.00;103035.81;7330486;19;20326;-43
2024/01/10 01:01:36;;;;;;;21.45;8.98;;;;;;;-5.42;100.00;103038.34;7356254;19;20549;-40
2024/01/10 01:04:06;;;;;;;21.67;8.80;;;;;;;-5.45;100.00;103044.56;7335081;19;20252;-44
2024/01/10 01:06:35;;;;;;;21.85;8.60;;;;;;;-5.39;100.00;103045.44;7355578;19;20201;-39
2024/01/10 01:09:07;;;;;;;26.77;10.27;;;;;;;-5.26;100.00;103043.06;7332832;19;20205;-40
2024/01/10 01:11:37;;;;;;;23.35;9.57;;;;;;;-5.34;100.00;103041.97;7355215;19;20200;-40
2024/01/10 01:14:06;;;;;;;24.85;9.60;;;;;;;-5.31;100.00;103041.50;7334676;19;20198;-48
2024/01/10 01:16:36;;;;;;;33.85;12.98;;;;;;;-5.23;100.00;103037.56;7354262;19;20201;-45
2024/01/10 01:19:07;;;;;;;38.08;14.40;;;;;;;-5.17;100.00;103040.94;7332360;19;20721;-39
2024/01/10 01:21:36;;;;;;;23.45;9.73;;;;;;;-5.16;100.00;103036.13;7355025;19;20600;-40
2024/01/10 01:24:09;;;;;;;34.17;11.57;;;;;;;-5.26;100.00;103037.09;7334266;19;20202;-44
2024/01/10 01:26:38;;;;;;;25.45;11.25;;;;;;;-5.25;100.00;103038.94;7355266;19;20207;-44
2024/01/10 01:29:08;;;;;;;25.05;10.40;;;;;;;-5.22;100.00;103034.34;7332856;19;20205;-41
2024/01/10 01:31:38;;;;;;;28.65;11.63;;;;;;;-5.17;100.00;103038.44;7354724;19;20193;-46
2024/01/10 01:34:08;;;;;;;31.27;12.50;;;;;;;-5.09;100.00;103042.94;7333951;19;20265;-45
2024/01/10 01:36:38;;;;;;;31.05;11.63;;;;;;;-5.12;100.00;103037.47;7353615;19;20610;-46
2024/01/10 01:39:10;;;;;;;29.52;10.90;;;;;;;-5.14;100.00;103033.81;7332146;19;20305;-42
2024/01/10 01:41:39;;;;;;;39.60;14.95;;;;;;;-5.13;100.00;103035.63;7351621;19;20198;-45
2024/01/10 01:44:09;;;;;;;32.83;10.63;;;;;;;-5.07;100.00;103035.59;7332875;19;20258;-41
2024/01/10 01:46:40;;;;;;;37.03;12.32;;;;;;;-5.11;100.00;103034.25;7354415;19;20201;-41
2024/01/10 01:49:09;;;;;;;32.60;11.05;;;;;;;-5.14;100.00;103021.22;7332550;19;20219;-44
2024/01/10 01:51:40;;;;;;;66.22;19.92;;;;;;;-5.10;100.00;103023.50;7353690;19;20572;-48
2024/01/10 01:54:12;;;;;;;29.83;11.52;;;;;;;-4.97;100.00;103025.22;7333606;19;20194;-45
2024/01/10 01:56:45;;;;;;;32.55;11.40;;;;;;;-5.11;100.00;103016.63;7354289;19;20614;-46
2024/01/10 01:59:14;;;;;;;44.30;15.32;;;;;;;-5.03;100.00;103018.63;7331337;19;20199;-46
2024/01/10 02:01:44;;;;;;;29.27;11.38;;;;;;;-5.08;100.00;103018.69;7348463;19;20566;-39
2024/01/10 02:04:14;;;;;;;24.95;11.70;;;;;;;-5.04;100.00;103029.41;7354694;19;20604;-43
2024/01/10 02:06:44;;;;;;;28.85;11.85;;;;;;;-4.97;100.00;103025.22;7351710;19;20202;-41
2024/01/10 02:09:16;;;;;;;29.58;12.18;;;;;;;-4.97;100.00;103022.69;7348572;19;20273;-46
2024/01/10 02:11:46;;;;;;;32.20;12.73;;;;;;;-5.07;100.00;103021.38;7331116;19;20196;-43
2024/01/10 02:14:16;;;;;;;27.88;11.60;;;;;;;-4.98;100.00;103023.41;7353797;19;20194;-42
2024/01/10 02:16:46;;;;;;;28.65;11.95;;;;;;;-4.93;100.00;103025.88;7331966;19;20215;-40
2024/01/10 02:19:22;;;;;;;33.15;12.13;;;;;;;-4.90;100.00;103027.91;7353092;19;20266;-42
2024/01/10 02:21:52;;;;;;;30.17;11.85;;;;;;;-4.87;100.00;103023.31;7331459;19;20197;-40
2024/01/10 02:24:24;;;;;;;32.28;10.50;;;;;;;-4.91;100.00;103016.00;7352455;19;20190;-45
2024/01/10 02:26:59;;;;;;;36.22;11.32;;;;;;;-4.89;100.00;103012.09;7331000;19;20618;-40
2024/01/10 02:29:28;;;;;;;28.08;11.20;;;;;;;-4.87;100.00;103015.75;7352056;19;20207;-40
2024/01/10 02:31:58;;;;;;;34.60;12.50;;;;;;;-4.89;100.00;103019.66;7331808;19;20219;-49
2024/01/10 02:34:28;;;;;;;28.05;11.65;;;;;;;-4.96;100.00;103019.47;7352436;19;20666;-44
2024/01/10 02:36:57;;;;;;;34.63;12.50;;;;;;;-4.91;100.00;103023.56;7330544;19;20268;-42
2024/01/10 02:39:27;;;;;;;31.63;12.43;;;;;;;-4.89;100.00;103022.16;7352176;19;20274;-42
2024/01/10 02:41:59;;;;;;;30.67;11.23;;;;;;;-4.87;100.00;103015.75;7328638;19;20190;-40
2024/01/10 02:44:29;;;;;;;31.60;11.35;;;;;;;-4.88;100.00;103016.44;7350452;19;20316;-46
2024/01/10 02:46:59;;;;;;;32.08;11.85;;;;;;;-4.81;100.00;103013.16;7331269;19;20282;-46
2024/01/10 02:49:28;;;;;;;33.03;13.05;;;;;;;-4.74;100.00;103013.31;7351710;19;20662;-40
2024/01/10 02:51:58;;;;;;;32.85;12.90;;;;;;;-4.72;100.00;103013.53;7331169;19;20607;-47
2024/01/10 02:54:28;;;;;;;46.50;16.60;;;;;;;-4.59;100.00;103014.56;7352309;19;20291;-40
2024/01/10 02:57:00;;;;;;;28.70;12.52;;;;;;;-4.67;100.00;103021.03;7330852;19;20616;-40
2024/01/10 02:59:29;;;;;;;36.85;13.55;;;;;;;-4.57;100.00;103013.16;7349845;19;20205;-42
2024/01/10 03:01:59;;;;;;;33.45;12.00;;;;;;;-4.47;100.00;103005.25;7326125;19;20613;-42
2024/01/10 03:04:29;;;;;;;31.10;12.68;;;;;;;-4.65;100.00;103004.53;7352944;19;20220;-47
2024/01/10 03:06:58;;;;;;;28.02;11.07;;;;;;;-4.75;100.00;103007.41;7331428;19;20270;-47
2024/01/10 03:09:28;;;;;;;54.95;18.13;;;;;;;-4.53;100.00;103004.41;7350419;19;20228;-42
2024/01/10 03:12:00;;;;;;;28.92;10.55;;;;;;;-4.51;100.00;103006.44;7330949;19;20214;-46
2024/01/10 03:14:30;;;;;;;32.10;11.30;;;;;;;-4.51;100.00;103014.00;7351698;19;20285;-47
2024/01/10 03:16:59;;;;;;;32.63;11.02;;;;;;;-4.54;100.00;103003.50;7330470;19;20202;-41
2024/01/10 03:19:29;;;;;;;31.98;12.07;;;;;;;-4.54;100.00;103007.63;7351040;19;20277;-43
2024/01/10 03:21:58;;;;;;;43.05;16.80;;;;;;;-4.47;100.00;103006.16;7329061;19;20203;-42
2024/01/10 03:24:29;;;;;;;30.90;11.75;;;;;;;-4.53;100.00;103010.38;7351456;19;20198;-42
2024/01/10 03:27:01;;;;;;;29.02;11.25;;;;;;;-4.47;100.00;102996.09;7329629;19;20682;-41
2024/01/10 03:29:31;;;;;;;30.10;10.90;;;;;;;-4.45;100.00;102997.91;7351164;19;20202;-43
2024/01/10 03:32:01;;;;;;;30.52;10.95;;;;;;;-4.33;100.00;102994.56;7330528;19;20190;-44
2024/01/10 03:34:31;;;;;;;50.10;17.70;;;;;;;-4.30;100.00;102995.00;7350747;19;20270;-49
2024/01/10 03:37:00;;;;;;;30.52;12.32;;;;;;;-4.31;100.00;102994.78;7329839;19;20205;-42
2024/01/10 03:39:30;;;;;;;29.60;11.45;;;;;;;-4.30;100.00;102997.53;7349441;19;20213;-43
2024/01/10 03:42:02;;;;;;;32.25;12.10;;;;;;;-4.29;100.00;102995.88;7328148;19;20190;-43
2024/01/10 03:44:32;;;;;;;25.95;9.93;;;;;;;-4.34;100.00;102995.25;7348809;19;20258;-44
2024/01/10 03:47:01;;;;;;;28.50;10.35;;;;;;;-4.35;100.00;102995.97;7329930;19;20843;-40
2024/01/10 03:49:31;;;;;;;82.43;26.00;;;;;;;-4.34;100.00;102987.69;7349721;19;20206;-40
2024/01/10 03:52:01;;;;;;;29.98;12.30;;;;;;;-4.36;100.00;102994.16;7330058;19;20194;-39
2024/01/10 03:54:30;;;;;;;26.90;10.80;;;;;;;-4.36;100.00;102986.59;7350564;19;20211;-40
2024/01/10 03:57:03;;;;;;;32.30;11.00;;;;;;;-4.39;100.00;102993.72;7328824;19;20200;-41
2024/01/10 03:59:32;;;;;;;31.10;11.93;;;;;;;-4.33;100.00;102992.03;7349425;19;20679;-40
2024/01/10 04:02:02;;;;;;;40.83;13.35;;;;;;;-4.30;100.00;102995.00;7329019;19;20999;-42
2024/01/10 04:04:32;;;;;;;32.22;11.45;;;;;;;-4.50;100.00;102998.16;7350443;19;20244;-40
2024/01/10 04:07:02;;;;;;;27.58;10.48;;;;;;;-4.36;100.00;102981.53;7329676;19;20286;-45
2024/01/10 04:09:31;;;;;;;23.75;10.73;;;;;;;-4.35;100.00;102980.84;7349060;19;20194;-41
2024/01/10 04:12:03;;;;;;;27.38;11.75;;;;;;;-4.35;100.00;102980.84;7329551;19;20190;-43
2024/01/10 04:14:33;;;;;;;25.55;10.63;;;;;;;-4.52;100.00;102984.47;7349940;19;20207;-46
2024/01/10 04:17:04;;;;;;;42.00;13.10;;;;;;;-4.50;100.00;102990.59;7327111;19;20198;-41
2024/01/10 04:19:34;;;;;;;102.43;29.73;;;;;;;-4.33;100.00;102979.44;7348166;19;20202;-40
2024/01/10 04:22:04;;;;;;;37.40;11.93;;;;;;;-4.36;100.00;102984.06;7329373;19;21586;-39
2024/01/10 04:24:33;;;;;;;25.30;9.70;;;;;;;-4.50;100.00;102987.19;7349695;19;20253;-41
2024/01/10 04:27:06;;;;;;;26.88;11.00;;;;;;;-4.35;100.00;102983.38;7328042;19;20198;-45
2024/01/10 04:29:39;;;;;;;79.57;23.45;;;;;;;-4.32;100.00;102991.34;7349072;19;20280;-44
2024/01/10 04:32:09;;;;;;;25.20;10.10;;;;;;;-4.32;100.00;102987.91;7329591;19;20258;-43
2024/01/10 04:34:39;;;;;;;29.27;10.48;;;;;;;-4.38;100.00;102986.38;7349721;19;20198;-42
2024/01/10 04:37:08;;;;;;;105.68;33.08;;;;;;;-4.08;100.00;102982.78;7328917;19;20198;-44
2024/01/10 04:39:39;;;;;;;54.83;19.73;;;;;;;-3.73;100.00;102994.25;7348203;19;20208;-42
2024/01/10 04:42:13;;;;;;;31.75;12.25;;;;;;;-3.80;100.00;102981.47;7329063;19;20273;-41
2024/01/10 04:44:43;;;;;;;27.30;11.60;;;;;;;-3.69;100.00;102986.38;7348170;19;20273;-48
2024/01/10 04:47:12;;;;;;;31.90;10.73;;;;;;;-3.79;100.00;102978.28;7329198;19;20262;-44
2024/01/10 04:49:42;;;;;;;25.80;10.32;;;;;;;-3.81;100.00;102970.50;7348491;19;20194;-42
2024/01/10 04:52:12;;;;;;;27.23;11.43;;;;;;;-3.82;100.00;102973.72;7328914;19;20194;-41
2024/01/10 04:54:42;;;;;;;29.55;9.57;;;;;;;-3.70;100.00;102978.63;7349504;19;20243;-43
2024/01/10 04:57:14;;;;;;;44.38;14.48;;;;;;;-3.62;100.00;102979.63;7329166;19;20215;-41
2024/01/10 04:59:44;;;;;;;38.40;12.02;;;;;;;-3.74;100.00;102973.84;7348159;19;20544;-39
2024/01/10 05:02:13;;;;;;;61.10;19.92;;;;;;;-3.97;100.00;102967.50;7327864;19;20194;-42
2024/01/10 05:04:43;;;;;;;56.92;18.83;;;;;;;-4.06;100.00;102976.34;7348858;19;20235;-39
2024/01/10 05:07:13;;;;;;;30.35;8.98;;;;;;;-4.21;100.00;102971.03;7328157;19;20190;-39
2024/01/10 05:09:42;;;;;;;22.05;9.02;;;;;;;-4.13;100.00;102976.22;7347784;19;20198;-39
2024/01/10 05:12:14;;;;;;;22.17;8.93;;;;;;;-4.32;100.00;102976.22;7328126;19;20201;-42
2024/01/10 05:14:44;;;;;;;22.70;7.70;;;;;;;-4.46;100.00;102979.38;7347233;19;20637;-39
2024/01/10 05:17:14;;;;;;;34.67;12.55;;;;;;;-4.39;100.00;102973.53;7349000;19;20197;-43
2024/01/10 05:19:45;;;;;;;25.30;8.85;;;;;;;-4.46;100.00;102971.81;7346891;19;20269;-40
2024/01/10 05:22:14;;;;;;;21.63;7.85;;;;;;;-4.46;100.00;102971.81;7328211;19;20190;-40
2024/01/10 05:24:44;;;;;;;42.67;14.20;;;;;;;-4.41;100.00;102969.91;7347494;19;20186;-36
2024/01/10 05:27:16;;;;;;;31.65;11.05;;;;;;;-4.23;100.00;102967.41;7348337;19;20202;-42
2024/01/10 05:29:47;;;;;;;15.40;7.55;;;;;;;-4.21;100.00;102968.50;7320026;19;20224;-43
2024/01/10 05:32:16;;;;;;;20.38;7.55;;;;;;;-4.20;100.00;102971.94;7348605;19;20190;-44
2024/01/10 05:34:47;;;;;;;19.45;7.97;;;;;;;-4.38;100.00;102970.31;7326643;19;20234;-40
2024/01/10 05:37:17;;;;;;;27.80;10.35;;;;;;;-4.36;100.00;102966.41;7348902;19;20265;-41
2024/01/10 05:39:47;;;;;;;27.85;10.77;;;;;;;-4.40;100.00;102967.63;7325479;19;20295;-40
2024/01/10 05:42:19;;;;;;;28.83;10.35;;;;;;;-4.32;100.00;102961.06;7348490;19;20274;-42
2024/01/10 05:44:49;;;;;;;20.35;9.32;;;;;;;-4.34;100.00;102963.41;7327347;19;20202;-43
2024/01/10 05:47:18;;;;;;;83.13;28.13;;;;;;;-4.38;100.00;102966.19;7355094;19;20261;-41
2024/01/10 05:49:48;;;;;;;29.75;9.68;;;;;;;-4.37;100.00;102972.13;7332264;19;20215;-41
2024/01/10 05:52:17;;;;;;;20.33;8.63;;;;;;;-4.59;100.00;102974.22;7355043;19;20212;-41
2024/01/10 05:54:48;;;;;;;147.52;43.40;;;;;;;-4.45;100.00;102967.66;7333159;19;20265;-45
2024/01/10 05:57:21;;;;;;;30.40;11.48;;;;;;;-4.35;100.00;102975.81;7354814;19;20190;-46
2024/01/10 05:59:52;;;;;;;29.60;11.27;;;;;;;-4.32;100.00;102967.75;7332074;19;20194;-41
2024/01/10 06:02:22;;;;;;;21.33;8.43;;;;;;;-4.34;100.00;102965.00;7353054;19;20194;-40
2024/01/10 06:04:51;;;;;;;35.78;12.98;;;;;;;-4.34;100.00;102957.44;7332047;19;20194;-44
2024/01/10 06:07:21;;;;;;;38.20;13.80;;;;;;;-4.07;100.00;102954.34;7352800;19;20193;-45
2024/01/10 06:09:51;;;;;;;23.48;9.35;;;;;;;-4.33;100.00;102949.19;7331992;19;20194;-40
2024/01/10 06:12:23;;;;;;;66.63;20.27;;;;;;;-4.32;100.00;102953.50;7351602;19;20194;-44
2024/01/10 06:14:53;;;;;;;27.02;9.80;;;;;;;-4.32;100.00;102955.16;7331154;19;20208;-41
2024/01/10 06:17:23;;;;;;;31.23;12.10;;;;;;;-4.43;100.00;102951.13;7353290;19;20194;-40
2024/01/10 06:19:55;;;;;;;28.58;11.32;;;;;;;-4.22;100.00;102958.19;7332373;19;20198;-46
2024/01/10 06:22:26;;;;;;;27.02;10.52;;;;;;;-4.32;100.00;102961.06;7352974;19;20205;-44
2024/01/10 06:24:59;;;;;;;30.30;10.55;;;;;;;-4.23;100.00;102980.00;7332587;19;20198;-45
2024/01/10 06:27:31;;;;;;;30.08;11.38;;;;;;;-4.22;100.00;102989.38;7352279;19;20232;-44
2024/01/10 06:30:00;;;;;;;20.20;9.80;;;;;;;-4.29;100.00;102995.88;7328114;19;20194;-45
2024/01/10 06:32:30;;;;;;;20.05;9.55;;;;;;;-4.22;100.00;102994.44;7352817;19;20655;-41
2024/01/10 06:35:00;;;;;;;25.77;10.35;;;;;;;-4.28;100.00;102983.50;7331243;19;20190;-41
2024/01/10 06:37:31;;;;;;;28.08;11.65;;;;;;;-4.25;100.00;102983.91;7353131;19;20311;-45
2024/01/10 06:40:05;;;;;;;31.15;9.52;;;;;;;-4.08;100.00;102987.84;7331613;19;20201;-39
2024/01/10 06:42:38;;;;;;;25.77;10.70;;;;;;;-4.09;100.00;102986.91;7349120;19;20222;-43
2024/01/10 06:45:11;;;;;;;17.27;8.75;;;;;;;-4.10;100.00;102980.06;7327956;19;20198;-46
2024/01/10 06:47:41;;;;;;;18.58;8.75;;;;;;;-3.85;100.00;102983.38;7352084;19;20210;-42
2024/01/10 06:50:12;;;;;;;24.70;11.15;;;;;;;-3.68;100.00;102988.19;7313771;19;20194;-45
2024/01/10 06:52:42;;;;;;;27.58;12.50;;;;;;;-3.78;100.00;102980.09;7325035;19;20201;-41
2024/01/10 06:55:12;;;;;;;20.17;9.05;;;;;;;-3.88;100.00;102982.06;7304752;19;20688;-41
2024/01/10 06:57:44;;;;;;;20.17;9.27;;;;;;;-3.92;100.00;102980.75;7323121;19;20202;-44
2024/01/10 07:00:17;;;;;;;21.13;9.10;;;;;;;-3.83;100.00;102973.50;7316598;19;20205;-42
2024/01/10 07:02:48;;;;;;;22.65;10.50;;;;;;;-3.62;100.00;102978.03;7329853;19;20198;-42
2024/01/10 07:05:19;;;;;;;21.42;9.07;;;;;;;-3.66;100.00;102981.75;7352209;19;20203;-40
2024/01/10 07:07:49;;;;;;;20.98;9.38;;;;;;;-3.81;100.00;102982.19;7328610;19;20202;-41
2024/01/10 07:10:19;;;;;;;18.55;8.52;;;;;;;-3.91;100.00;102984.19;7348940;19;20273;-43
2024/01/10 07:12:52;;;;;;;31.83;13.52;;;;;;;-3.89;100.00;102973.59;7329856;19;20269;-48
2024/01/10 07:15:21;;;;;;;22.70;10.32;;;;;;;-3.77;100.00;102981.91;7350169;19;20194;-40
2024/01/10 07:17:51;;;;;;;23.08;10.18;;;;;;;-3.80;100.00;102991.56;7327664;19;20210;-41
2024/01/10 07:20:23;;;;;;;35.30;13.35;;;;;;;-3.83;100.00;103003.78;7350470;19;20194;-44
2024/01/10 07:22:54;;;;;;;16.88;7.97;;;;;;;-3.87;100.00;103011.63;7329826;19;20202;-40
2024/01/10 07:25:25;;;;;;;18.45;7.63;;;;;;;-3.78;100.00;103017.94;7350537;19;20191;-41
2024/01/10 07:27:58;;;;;;;20.55;7.97;;;;;;;-3.82;100.00;103015.69;7327608;19;20218;-42
2024/01/10 07:30:32;;;;;;;19.02;8.43;;;;;;;-3.81;100.00;103020.03;7349553;19;20198;-41
2024/01/10 07:33:02;;;;;;;16.08;7.72;;;;;;;-3.94;100.00;103010.78;7329638;19;20219;-48
2024/01/10 07:35:32;;;;;;;18.77;9.20;;;;;;;-3.83;100.00;103023.97;7350139;19;20254;-44
2024/01/10 07:38:05;;;;;;;19.85;7.47;;;;;;;-3.82;100.00;103029.25;7328526;19;20571;-39
2024/01/10 07:40:34;;;;;;;18.05;8.57;;;;;;;-3.93;100.00;103024.34;7349992;19;20211;-42
2024/01/10 07:43:07;;;;;;;18.52;7.20;;;;;;;-4.02;100.00;103021.47;7324514;19;20766;-40
2024/01/10 07:45:36;;;;;;;18.63;7.72;;;;;;;-3.95;100.00;103023.22;7350504;19;20194;-42
2024/01/10 07:48:07;;;;;;;35.08;12.75;;;;;;;-3.99;100.00;103032.00;7327347;19;20668;-40
2024/01/10 07:50:36;;;;;;;22.10;9.48;;;;;;;-4.00;100.00;103030.13;7349880;19;20194;-40
2024/01/10 07:53:07;;;;;;;24.95;9.80;;;;;;;-4.04;100.00;103030.44;7329159;19;20258;-43
2024/01/10 07:55:37;;;;;;;20.27;9.05;;;;;;;-3.94;100.00;103038.53;7349946;19;20201;-44
2024/01/10 07:58:10;;;;;;;18.58;8.77;;;;;;;-3.88;100.00;103063.72;7328185;19;20273;-45
2024/01/10 08:00:39;;;;;;;94.97;29.23;;;;;;;-3.67;100.00;103069.88;7350320;19;20196;-42
2024/01/10 08:03:10;;;;;;;28.10;11.25;;;;;;;-3.73;100.00;103072.47;7328268;19;20194;-43
2024/01/10 08:05:39;;;;;;;26.58;10.52;;;;;;;-3.69;100.00;103073.81;7349972;19;20264;-40
2024/01/10 08:08:09;;;;;;;24.08;11.40;;;;;;;-3.64;100.00;103090.47;7326798;19;20205;-42
2024/01/10 08:10:39;;;;;;;23.17;8.57;;;;;;;-3.82;100.00;103089.78;7350489;19;20218;-43
2024/01/10 08:13:12;;;;;;;71.45;22.67;;;;;;;-3.80;100.00;103089.97;7328521;19;20218;-41
2024/01/10 08:15:41;;;;;;;18.90;8.60;;;;;;;-3.66;100.00;103107.03;7350050;19;20202;-45
2024/01/10 08:18:11;;;;;;;16.13;7.13;;;;;;;-3.67;100.00;103107.72;7327728;19;20718;-40
2024/01/10 08:20:40;;;;;;;19.88;9.93;;;;;;;-3.67;100.00;103101.09;7349346;19;20205;-44
2024/01/10 08:23:10;;;;;;;17.67;7.95;;;;;;;-3.70;100.00;103092.19;7328272;19;20206;-41
2024/01/10 08:25:40;;;;;;;21.10;8.18;;;;;;;-3.66;100.00;103096.94;7348629;19;20194;-50
2024/01/10 08:28:13;;;;;;;29.92;13.30;;;;;;;-3.50;100.00;103109.13;7327446;19;20290;-42
2024/01/10 08:30:40;;;;;;;14.60;7.47;;;;;;;-3.64;100.00;103094.63;7347428;19;20201;-42
2024/01/10 08:33:10;;;;;;;38.35;13.77;;;;;;;-3.61;100.00;103090.91;7328326;19;20258;-46
2024/01/10 08:35:39;;;;;;;14.82;7.55;;;;;;;-3.58;100.00;103080.31;7348672;19;20197;-43
2024/01/10 08:38:09;;;;;;;17.92;7.65;;;;;;;-3.57;100.00;103082.13;7325211;19;20212;-40
2024/01/10 08:40:39;;;;;;;28.10;10.43;;;;;;;-3.40;100.00;103089.47;7348331;19;20194;-42
2024/01/10 08:43:09;;;;;;;16.55;7.22;;;;;;;-3.55;100.00;103084.16;7324464;19;20198;-43
2024/01/10 08:45:41;;;;;;;29.50;11.30;;;;;;;-3.59;100.00;103075.97;7348153;19;20719;-40
2024/01/10 08:48:13;;;;;;;23.83;9.23;;;;;;;-3.49;100.00;103086.59;7327838;19;20218;-44
2024/01/10 08:50:43;;;;;;;16.92;7.22;;;;;;;-3.64;100.00;103071.91;7348704;19;20194;-41
2024/01/10 08:53:13;;;;;;;15.75;7.32;;;;;;;-3.55;100.00;103073.13;7328177;19;20215;-40
2024/01/10 08:55:43;;;;;;;26.67;8.90;;;;;;;-3.67;100.00;103063.22;7348671;19;20667;-41
2024/01/10 08:58:12;;;;;;;29.00;11.38;;;;;;;-3.67;100.00;103058.19;7327341;19;20666;-43
2024/01/10 09:00:45;;;;;;;20.67;8.10;;;;;;;-3.49;100.00;103063.88;7348360;19;20194;-45
2024/01/10 09:03:15;;;;;;;18.85;7.85;;;;;;;-3.57;100.00;103046.78;7327279;19;20585;-40
2024/01/10 09:05:44;;;;;;;23.55;9.82;;;;;;;-3.47;100.00;103052.38;7348776;19;20219;-43
2024/01/10 09:08:30;;;;;;;32.30;12.10;;;;;;;-3.23;100.00;103046.28;7325839;19;20666;-40
2024/01/10 09:11:00;;;;;;;38.20;13.48;;;;;;;-3.10;100.00;103048.84;7327077;19;20205;-44
2024/01/10 09:13:30;;;;;;;28.10;12.43;;;;;;;-3.10;100.00;103043.78;7347601;19;20198;-44
2024/01/10 09:16:02;;;;;;;20.13;8.65;;;;;;;-3.17;100.00;103026.88;7326673;19;20208;-44
2024/01/10 09:18:39;;;;;;;37.35;13.43;;;;;;;-3.23;100.00;103031.13;7346478;19;20277;-43
2024/01/10 09:21:18;;;;;;;19.38;7.60;;;;;;;-3.35;100.00;103034.56;7334715;19;20210;-40
2024/01/10 09:23:50;;;;;;;16.88;6.82;;;;;;;-3.49;100.00;103015.91;7326299;19;20197;-41
2024/01/10 09:26:20;;;;;;;16.00;6.95;;;;;;;-3.62;100.00;103008.31;7355964;19;20643;-39
2024/01/10 09:28:50;;;;;;;14.60;6.60;;;;;;;-3.63;100.00;102996.41;7331560;19;20258;-41
2024/01/10 09:31:23;;;;;;;16.85;6.60;;;;;;;-3.56;100.00;102991.47;7355488;19;20234;-39
2024/01/10 09:33:53;;;;;;;28.55;8.95;;;;;;;-3.50;100.00;102987.97;7331073;19;20552;-40
2024/01/10 09:36:23;;;;;;;14.10;6.45;;;;;;;-3.60;100.00;102973.19;7353032;19;20200;-42
2024/01/10 09:38:53;;;;;;;13.68;5.97;;;;;;;-3.71;100.00;102975.19;7331246;19;20772;-40
2024/01/10 09:41:23;;;;;;;12.80;6.30;;;;;;;-3.87;100.00;102966.22;7353754;19;20208;-50
2024/01/10 09:43:53;;;;;;;13.68;6.80;;;;;;;-4.08;100.00;102947.47;7326977;19;20220;-41
2024/01/10 09:46:25;;;;;;;12.07;5.60;;;;;;;-4.03;100.00;102956.59;7352849;19;20467;-41
2024/01/10 09:48:54;;;;;;;14.52;7.18;;;;;;;-3.91;100.00;102953.91;7332091;19;20317;-42
2024/01/10 09:51:29;;;;;;;18.25;7.35;;;;;;;-3.94;100.00;102952.78;7353623;19;20194;-45
2024/01/10 09:54:00;;;;;;;15.60;6.80;;;;;;;-3.93;100.00;102954.59;7332812;19;20199;-48
2024/01/10 09:56:30;;;;;;;17.15;7.00;;;;;;;-4.06;100.00;102953.63;7354241;19;20202;-43
2024/01/10 09:59:01;;;;;;;16.15;7.35;;;;;;;-3.99;100.00;102958.84;7331962;19;20221;-41
2024/01/10 10:01:33;;;;;;;16.63;7.43;;;;;;;-4.02;100.00;102960.94;7354487;19;20755;-42
2024/01/10 10:04:04;;;;;;;17.95;8.75;;;;;;;-3.94;100.00;102964.50;7332433;19;20265;-45
2024/01/10 10:06:34;;;;;;;17.30;7.25;;;;;;;-3.84;100.00;102965.03;7353360;19;20194;-40
2024/01/10 10:09:04;;;;;;;16.58;6.97;;;;;;;-3.83;100.00;102978.56;7331415;19;20209;-40
2024/01/10 10:11:33;;;;;;;16.85;7.50;;;;;;;-3.87;100.00;102968.75;7353294;19;20197;-43
2024/01/10 10:14:16;;;;;;;13.20;5.90;;;;;;;-3.89;100.00;102973.59;7332705;19;20204;-41
2024/01/10 10:16:48;;;;;;;12.32;6.38;;;;;;;-3.95;100.00;102976.19;7338596;19;20198;-44
2024/01/10 10:19:25;;;;;;;13.50;6.80;;;;;;;-3.96;100.00;102975.97;7353815;19;20302;-43
2024/01/10 10:22:10;;;;;;;15.85;6.82;;;;;;;-4.03;100.00;102981.81;7332467;19;20205;-43
2024/01/10 10:24:44;;;;;;;12.20;6.88;;;;;;;-4.07;100.00;102977.03;7353489;19;20196;-43
2024/01/10 10:27:14;;;;;;;15.70;7.55;;;;;;;-4.07;100.00;102979.56;7330581;19;20198;-42
2024/01/10 10:29:44;;;;;;;20.30;7.97;;;;;;;-3.95;100.00;102982.88;7351813;19;20244;-43
2024/01/10 10:32:19;;;;;;;18.55;8.25;;;;;;;-3.91;100.00;102986.72;7330272;19;20201;-44
2024/01/10 10:34:49;;;;;;;17.05;7.65;;;;;;;-3.97;100.00;102992.75;7329767;19;20198;-44
2024/01/10 10:37:18;;;;;;;18.52;8.00;;;;;;;-3.97;100.00;103002.81;7351968;19;20201;-41
2024/01/10 10:39:48;;;;;;;18.23;8.18;;;;;;;-3.92;100.00;103003.44;7326620;19;20216;-42
2024/01/10 10:42:18;;;;;;;20.35;8.52;;;;;;;-3.89;100.00;102998.84;7352439;19;20202;-42
2024/01/10 10:44:51;;;;;;;21.10;9.40;;;;;;;-3.97;100.00;102996.84;7326439;19;20211;-42
2024/01/10 10:47:24;;;;;;;19.83;8.68;;;;;;;-3.91;100.00;102997.69;7352782;19;20201;-45
2024/01/10 10:49:56;;;;;;;21.50;9.00;;;;;;;-4.04;100.00;102995.13;7330498;19;20222;-48
2024/01/10 10:52:26;;;;;;;20.00;8.05;;;;;;;-4.10;100.00;102999.34;7352244;19;20276;-46
2024/01/10 10:54:58;;;;;;;18.20;7.93;;;;;;;-4.12;100.00;103001.63;7330808;19;20219;-45
2024/01/10 10:57:29;;;;;;;17.10;7.25;;;;;;;-4.11;100.00;103000.03;7351672;19;20268;-41
2024/01/10 11:00:00;;;;;;;17.52;6.80;;;;;;;-4.17;100.00;102997.56;7330641;19;20209;-45
2024/01/10 11:02:32;;;;;;;16.13;6.60;;;;;;;-4.19;100.00;102993.94;7352391;19;20201;-43
2024/01/10 11:05:03;;;;;;;11.45;5.45;;;;;;;-4.30;100.00;102989.03;7330098;19;20285;-45
2024/01/10 11:07:33;;;;;;;12.05;5.68;;;;;;;-4.38;100.00;102985.44;7351522;19;20308;-42
2024/01/10 11:10:04;;;;;;;14.35;5.85;;;;;;;-4.36;100.00;102986.59;7330330;19;20259;-43
2024/01/10 11:12:47;;;;;;;11.38;5.10;;;;;;;-4.31;100.00;102987.22;7351738;19;20186;-42
2024/01/10 11:15:26;;;;;;;10.95;4.88;;;;;;;-4.39;100.00;102983.63;7331412;19;20194;-48
2024/01/10 11:18:12;;;;;;;12.40;5.40;;;;;;;-4.50;100.00;102970.44;7329563;19;20271;-42
2024/01/10 11:20:53;;;;;;;17.25;5.75;;;;;;;-4.45;100.00;102970.19;7351905;19;20203;-42